Time;durP1;ratioP1;P1;durP2;ratioP2;P2;SDS_P1;SDS_P2;PMS_P1;PMS_P2;Temp;Humidity;BMP_temperature;BMP_pressure;BME280_temperature;BME280_humidity;BME280_pressure;Samples;Min_cycle;Max_cycle;Signal;HPM_P1;HPM_P2
2022/12/28 00:01:29;;;;;;;83.32;44.05;;;;;;;2.62;100.00;94102.31;5090044;28;20052;-68
2022/12/28 00:03:59;;;;;;;76.25;42.22;;;;;;;2.63;100.00;94101.38;5089831;28;20097;-69
2022/12/28 00:06:27;;;;;;;75.22;41.35;;;;;;;2.63;100.00;94103.09;5090037;28;20454;-69
2022/12/28 00:08:54;;;;;;;76.38;40.83;;;;;;;2.69;100.00;94101.75;5090114;28;20040;-69
2022/12/28 00:11:23;;;;;;;70.20;39.55;;;;;;;2.74;100.00;94109.75;5089972;28;20047;-69
2022/12/28 00:13:50;;;;;;;64.22;36.88;;;;;;;2.77;100.00;94112.00;5089450;28;20389;-68
2022/12/28 00:16:24;;;;;;;66.53;39.00;;;;;;;2.82;100.00;94114.91;5089564;28;20044;-68
2022/12/28 00:18:51;;;;;;;69.55;39.83;;;;;;;2.89;100.00;94120.25;5089842;28;20052;-69
2022/12/28 00:21:19;;;;;;;61.63;36.05;;;;;;;2.91;100.00;94118.34;5089784;28;20094;-69
2022/12/28 00:23:49;;;;;;;60.63;34.72;;;;;;;2.92;100.00;94112.38;5089667;28;20055;-69
2022/12/28 00:26:15;;;;;;;61.97;34.42;;;;;;;2.86;100.00;94111.16;5089426;28;20503;-69
2022/12/28 00:28:43;;;;;;;46.33;27.85;;;;;;;2.88;100.00;94116.88;5089843;28;20044;-69
2022/12/28 00:31:10;;;;;;;54.88;33.72;;;;;;;2.80;100.00;94112.53;5089549;28;20093;-69
2022/12/28 00:33:36;;;;;;;50.13;30.65;;;;;;;2.90;100.00;94115.03;5089740;28;20044;-69
2022/12/28 00:36:04;;;;;;;49.97;31.70;;;;;;;2.96;100.00;94136.50;5089555;28;20040;-69
2022/12/28 00:38:34;;;;;;;54.35;32.15;;;;;;;2.93;100.00;94122.34;5083581;28;20114;-69
2022/12/28 00:41:01;;;;;;;53.22;31.67;;;;;;;2.88;100.00;94126.25;5068542;28;20534;-69
2022/12/28 00:43:28;;;;;;;47.67;31.25;;;;;;;2.90;100.00;94120.09;5068483;28;20164;-69
2022/12/28 00:45:54;;;;;;;50.78;31.00;;;;;;;2.86;100.00;94120.53;5068686;28;20134;-69
2022/12/28 00:48:21;;;;;;;53.15;32.75;;;;;;;3.00;100.00;94137.03;5068548;28;20504;-69
2022/12/28 00:50:48;;;;;;;57.63;35.15;;;;;;;3.06;100.00;94129.66;5082356;28;20500;-69
2022/12/28 00:53:15;;;;;;;60.15;35.60;;;;;;;3.10;100.00;94134.47;5089477;28;20040;-69
2022/12/28 00:55:43;;;;;;;62.05;35.95;;;;;;;3.15;100.00;94129.75;5088920;28;20052;-69
2022/12/28 00:58:10;;;;;;;56.50;35.05;;;;;;;3.16;100.00;94133.91;5089030;28;20173;-69
2022/12/28 01:00:37;;;;;;;53.55;31.88;;;;;;;3.18;100.00;94126.94;5088962;28;20044;-69
2022/12/28 01:03:04;;;;;;;51.25;32.53;;;;;;;3.23;100.00;94121.44;5089368;28;20261;-69
2022/12/28 01:05:31;;;;;;;53.42;32.97;;;;;;;3.28;100.00;94126.91;5088565;28;20507;-69
2022/12/28 01:07:58;;;;;;;57.42;35.22;;;;;;;3.38;100.00;94124.31;5089102;28;20101;-69
2022/12/28 01:10:24;;;;;;;49.38;28.70;;;;;;;3.31;100.00;94124.88;5088989;28;20082;-69
2022/12/28 01:12:53;;;;;;;39.92;25.23;;;;;;;3.40;100.00;94123.22;5089241;28;20043;-69
2022/12/28 01:15:20;;;;;;;50.25;29.63;;;;;;;3.49;100.00;94126.63;5087085;28;20090;-69
2022/12/28 01:17:47;;;;;;;53.92;33.40;;;;;;;3.50;100.00;94125.69;5068360;28;20048;-69
2022/12/28 01:20:15;;;;;;;49.58;33.15;;;;;;;3.53;100.00;94127.16;5076451;28;20044;-69
2022/12/28 01:22:43;;;;;;;47.53;30.42;;;;;;;3.53;100.00;94117.78;5068194;28;20493;-70
2022/12/28 01:25:11;;;;;;;23.40;15.55;;;;;;;3.63;100.00;94110.09;5068167;28;20057;-70
2022/12/28 01:27:38;;;;;;;37.55;20.92;;;;;;;3.70;100.00;94106.03;5068246;28;20381;-70
2022/12/28 01:30:07;;;;;;;20.23;13.38;;;;;;;3.79;100.00;94112.00;5068230;28;20049;-70
2022/12/28 01:32:34;;;;;;;41.03;25.35;;;;;;;3.81;100.00;94120.28;5067699;28;20496;-69
2022/12/28 01:35:01;;;;;;;49.33;30.30;;;;;;;3.80;100.00;94121.22;5068168;28;20044;-69
2022/12/28 01:37:27;;;;;;;44.75;27.85;;;;;;;3.80;100.00;94116.13;5067842;28;20045;-69
2022/12/28 01:39:54;;;;;;;24.20;15.63;;;;;;;3.70;100.00;94116.19;5067894;28;20093;-70
2022/12/28 01:42:21;;;;;;;40.65;25.50;;;;;;;3.70;100.00;94118.75;5067742;28;20493;-70
2022/12/28 01:44:49;;;;;;;26.35;18.08;;;;;;;3.61;100.00;94107.69;5067748;28;20052;-70
2022/12/28 01:47:21;;;;;;;26.13;17.35;;;;;;;3.57;100.00;94108.16;5068346;28;20060;-69
2022/12/28 01:50:02;;;;;;;32.90;21.88;;;;;;;3.39;100.00;94075.09;5067493;28;20504;-69
2022/12/28 01:52:33;;;;;;;17.52;12.63;;;;;;;3.70;100.00;94100.94;5067677;28;20054;-69
2022/12/28 01:55:06;;;;;;;14.85;10.13;;;;;;;3.91;100.00;94112.59;5067836;28;20053;-70
2022/12/28 01:57:36;;;;;;;13.07;10.10;;;;;;;4.06;100.00;94107.78;5068114;28;20056;-69
2022/12/28 02:00:07;;;;;;;13.93;9.88;;;;;;;4.17;100.00;94111.03;5067674;28;20040;-69
2022/12/28 02:02:36;;;;;;;27.95;18.23;;;;;;;4.06;100.00;94119.66;5067512;28;20489;-69
2022/12/28 02:05:03;;;;;;;30.25;21.30;;;;;;;3.96;100.00;94117.22;5067543;28;20044;-69
2022/12/28 02:07:39;;;;;;;36.67;24.48;;;;;;;3.93;100.00;94115.75;5067703;28;20093;-69
2022/12/28 02:10:08;;;;;;;32.47;20.05;;;;;;;3.85;100.00;94108.88;5067560;28;20509;-70
2022/12/28 02:12:35;;;;;;;35.55;21.58;;;;;;;3.86;100.00;94105.41;5067719;28;20044;-70
2022/12/28 02:15:02;;;;;;;37.60;23.85;;;;;;;3.91;100.00;94115.13;5067735;28;20044;-70
2022/12/28 02:17:29;;;;;;;35.75;22.38;;;;;;;3.90;100.00;94108.44;5067261;28;20041;-70
2022/12/28 02:19:57;;;;;;;33.05;21.65;;;;;;;3.85;100.00;94108.09;5069389;28;20060;-69
2022/12/28 02:22:56;;;;;;;30.77;20.77;;;;;;;3.84;100.00;94106.50;5071274;28;20098;-70
2022/12/28 02:25:47;;;;;;;33.10;19.60;;;;;;;3.79;100.00;94113.75;5048068;28;20040;-70
2022/12/28 02:28:43;;;;;;;28.35;19.27;;;;;;;3.70;100.00;94116.19;5071011;28;20048;-70
2022/12/28 02:31:14;;;;;;;23.52;16.88;;;;;;;3.62;100.00;94111.06;5070667;28;20508;-70
2022/12/28 02:33:47;;;;;;;27.65;17.65;;;;;;;3.51;100.00;94099.34;5071060;28;20048;-70
2022/12/28 02:36:19;;;;;;;26.05;18.52;;;;;;;3.48;100.00;94100.44;5070578;28;20040;-70
2022/12/28 02:38:51;;;;;;;25.33;19.23;;;;;;;3.47;100.00;94093.75;5071037;28;20044;-69
2022/12/28 02:41:21;;;;;;;25.42;18.48;;;;;;;3.44;100.00;94085.63;5070949;28;20423;-69
2022/12/28 02:43:48;;;;;;;25.40;17.30;;;;;;;3.42;100.00;94087.53;5070660;28;20121;-69
2022/12/28 02:52:08;;;;;;;20.27;15.95;;;;;;;3.53;100.00;94077.16;5049258;28;20048;-70
2022/12/28 02:57:51;;;;;;;20.73;14.60;;;;;;;3.63;100.00;94071.19;5070350;28;20051;-69
2022/12/28 03:00:19;;;;;;;22.80;15.35;;;;;;;3.63;100.00;94071.19;5070491;28;20040;-69
2022/12/28 03:03:10;;;;;;;19.10;15.15;;;;;;;3.66;100.00;94066.59;5070288;28;20492;-69
2022/12/28 03:08:37;;;;;;;25.67;18.25;;;;;;;3.76;100.00;94053.03;5070146;28;20059;-69
2022/12/28 03:11:06;;;;;;;27.35;18.10;;;;;;;3.81;100.00;94045.78;5070435;28;20041;-70
2022/12/28 03:13:43;;;;;;;26.00;17.73;;;;;;;3.87;100.00;94058.69;5070260;28;20045;-69
2022/12/28 03:16:15;;;;;;;24.70;17.70;;;;;;;3.82;100.00;94049.91;5069800;28;20105;-69
2022/12/28 03:32:40;;;;;;;30.60;21.52;;;;;;;3.63;100.00;94066.09;5069843;28;20056;-69
2022/12/28 03:35:09;;;;;;;29.45;21.73;;;;;;;3.54;100.00;94065.22;5069912;28;20048;-69
2022/12/28 03:37:42;;;;;;;22.67;16.35;;;;;;;3.31;100.00;94055.50;5069840;28;20044;-69
2022/12/28 03:40:20;;;;;;;23.27;16.05;;;;;;;3.37;100.00;94065.06;5069895;28;20047;-69
2022/12/28 03:45:40;;;;;;;28.83;19.33;;;;;;;3.44;100.00;94062.78;5069373;28;20055;-69
2022/12/28 03:48:08;;;;;;;29.42;22.30;;;;;;;3.49;100.00;94065.69;5069258;28;20158;-69
2022/12/28 03:50:38;;;;;;;27.38;18.98;;;;;;;3.53;100.00;94068.72;5069324;28;20048;-70
2022/12/28 03:53:05;;;;;;;25.50;17.88;;;;;;;3.52;100.00;94067.91;5069548;28;20045;-70
2022/12/28 03:55:32;;;;;;;26.35;18.95;;;;;;;3.48;100.00;94075.03;5069323;28;20060;-69
2022/12/28 03:57:58;;;;;;;28.77;21.50;;;;;;;3.44;100.00;94062.78;5069388;28;20094;-69
2022/12/28 04:00:25;;;;;;;28.00;20.38;;;;;;;3.53;100.00;94077.16;5069080;28;20044;-69
2022/12/28 04:02:52;;;;;;;27.55;20.65;;;;;;;3.54;100.00;94066.03;5069135;28;20048;-69
2022/12/28 04:05:20;;;;;;;30.40;20.58;;;;;;;3.58;100.00;94064.00;5069141;28;20094;-69
2022/12/28 04:07:48;;;;;;;28.48;19.70;;;;;;;3.69;100.00;94075.69;5069018;28;20087;-69
2022/12/28 04:10:15;;;;;;;30.38;20.90;;;;;;;3.68;100.00;94069.81;5069135;28;20041;-69
2022/12/28 04:12:41;;;;;;;26.58;20.17;;;;;;;3.73;100.00;94087.16;5069204;28;20041;-69
2022/12/28 04:15:09;;;;;;;35.28;21.75;;;;;;;3.74;100.00;94089.56;5068587;28;20052;-69
2022/12/28 04:17:35;;;;;;;34.97;24.33;;;;;;;3.78;100.00;94089.25;5069138;28;20117;-69
2022/12/28 04:20:02;;;;;;;34.75;23.75;;;;;;;3.80;100.00;94098.34;5069019;28;20049;-70
2022/12/28 04:22:29;;;;;;;35.22;25.42;;;;;;;3.71;100.00;94107.63;5068579;28;20101;-69
2022/12/28 04:24:57;;;;;;;39.20;27.85;;;;;;;3.62;100.00;94105.97;5068422;28;20053;-69
2022/12/28 04:27:23;;;;;;;38.70;26.58;;;;;;;3.68;100.00;94112.19;5068955;28;20036;-69
2022/12/28 04:29:50;;;;;;;42.08;28.33;;;;;;;3.72;100.00;94109.25;5068641;28;20400;-70
2022/12/28 04:32:17;;;;;;;40.42;27.52;;;;;;;3.78;100.00;94101.97;5068846;28;20044;-70
2022/12/28 04:34:44;;;;;;;39.08;26.55;;;;;;;3.73;100.00;94108.31;5068539;28;20101;-69
2022/12/28 04:37:10;;;;;;;45.10;30.23;;;;;;;3.58;100.00;94107.19;5068639;28;20097;-69
2022/12/28 04:39:37;;;;;;;40.60;27.00;;;;;;;3.56;100.00;94099.72;5068385;28;20086;-70
2022/12/28 04:42:05;;;;;;;43.25;28.13;;;;;;;3.57;100.00;94092.91;5068239;28;20044;-70
2022/12/28 04:44:32;;;;;;;46.88;29.17;;;;;;;3.64;100.00;94096.44;5068391;28;20475;-69
2022/12/28 04:46:59;;;;;;;39.25;27.05;;;;;;;3.63;100.00;94101.66;5068363;28;20047;-69
2022/12/28 04:49:25;;;;;;;38.72;26.63;;;;;;;3.67;100.00;94087.75;5068690;28;20463;-69
2022/12/28 04:51:52;;;;;;;37.55;25.27;;;;;;;3.71;100.00;94089.06;5068653;28;20094;-70
2022/12/28 04:54:19;;;;;;;39.55;28.60;;;;;;;3.74;100.00;94094.66;5068209;28;20091;-70
2022/12/28 04:56:45;;;;;;;40.15;26.10;;;;;;;3.82;100.00;94090.56;5068586;28;20045;-70
2022/12/28 04:59:13;;;;;;;37.50;25.33;;;;;;;3.85;100.00;94096.16;5068079;28;20565;-70
2022/12/28 05:01:40;;;;;;;31.85;21.80;;;;;;;3.87;100.00;94094.28;5068647;28;20044;-70
2022/12/28 05:04:07;;;;;;;30.63;20.95;;;;;;;3.85;100.00;94095.38;5068490;28;20114;-70
2022/12/28 05:06:33;;;;;;;29.33;20.80;;;;;;;3.88;100.00;94095.06;5068098;28;20106;-70
2022/12/28 05:09:01;;;;;;;30.13;21.35;;;;;;;3.92;100.00;94088.75;5068103;28;20037;-69
2022/12/28 05:11:30;;;;;;;29.48;19.48;;;;;;;3.93;100.00;94085.25;5067972;28;20078;-70
2022/12/28 05:13:58;;;;;;;27.48;19.63;;;;;;;3.94;100.00;94086.06;5068389;28;20098;-70
2022/12/28 05:16:27;;;;;;;26.30;19.30;;;;;;;3.96;100.00;94082.44;5068352;28;20090;-70
2022/12/28 05:18:55;;;;;;;28.73;19.17;;;;;;;3.94;100.00;94086.06;5068211;28;20428;-70
2022/12/28 05:21:24;;;;;;;23.38;17.55;;;;;;;3.92;100.00;94077.78;5068271;28;20040;-70
2022/12/28 05:23:51;;;;;;;25.52;18.20;;;;;;;3.92;100.00;94078.59;5068136;28;20565;-70
2022/12/28 05:26:20;;;;;;;40.25;25.02;;;;;;;3.92;100.00;94076.03;5068196;28;20550;-70
2022/12/28 05:28:47;;;;;;;43.08;27.08;;;;;;;3.93;100.00;94084.47;5068426;28;20044;-70
2022/12/28 05:31:15;;;;;;;45.40;28.17;;;;;;;3.91;100.00;94084.63;5068568;28;20545;-70
2022/12/28 05:33:44;;;;;;;39.47;26.15;;;;;;;3.94;100.00;94079.22;5067923;28;20089;-70
2022/12/28 05:36:12;;;;;;;43.08;27.33;;;;;;;3.66;100.00;94061.53;5067794;28;20430;-70
2022/12/28 05:38:39;;;;;;;42.17;27.70;;;;;;;3.94;100.00;94097.03;5068150;28;20094;-70
2022/12/28 05:41:07;;;;;;;53.85;35.00;;;;;;;3.79;100.00;94101.81;5067800;28;20086;-69
2022/12/28 05:43:34;;;;;;;54.42;33.58;;;;;;;3.63;100.00;94099.94;5067681;28;20048;-69
2022/12/28 05:46:03;;;;;;;67.10;40.25;;;;;;;3.58;100.00;94091.94;5067657;28;20094;-69
2022/12/28 05:48:32;;;;;;;61.17;39.42;;;;;;;3.52;100.00;94097.63;5067578;28;20037;-70
2022/12/28 05:51:02;;;;;;;56.53;36.47;;;;;;;3.58;100.00;94102.13;5068635;28;20350;-70
2022/12/28 05:53:29;;;;;;;52.33;34.03;;;;;;;3.63;100.00;94107.56;5067883;28;20086;-70
2022/12/28 05:56:01;;;;;;;42.22;27.58;;;;;;;3.66;100.00;94093.78;5071277;28;20404;-70
2022/12/28 05:58:27;;;;;;;52.25;32.72;;;;;;;3.69;100.00;94104.44;5071521;28;20408;-70
2022/12/28 06:00:54;;;;;;;50.67;30.67;;;;;;;3.55;100.00;94069.38;5071511;28;20465;-70
2022/12/28 06:03:21;;;;;;;57.85;36.38;;;;;;;3.78;100.00;94109.59;5071582;28;20045;-70
2022/12/28 06:05:48;;;;;;;53.85;33.63;;;;;;;3.81;100.00;94112.66;5070997;28;20561;-70
2022/12/28 06:08:16;;;;;;;57.92;36.97;;;;;;;3.83;100.00;94103.13;5071363;28;20036;-70
2022/12/28 06:10:42;;;;;;;57.88;36.58;;;;;;;3.85;100.00;94105.53;5071158;28;20037;-71
2022/12/28 06:13:09;;;;;;;58.88;37.03;;;;;;;3.80;100.00;94112.81;5071004;28;20044;-70
2022/12/28 06:15:36;;;;;;;56.00;34.47;;;;;;;3.77;100.00;94113.88;5070973;28;20041;-69
2022/12/28 06:18:02;;;;;;;45.13;30.98;;;;;;;3.76;100.00;94127.53;5071126;28;20098;-69
2022/12/28 06:20:29;;;;;;;47.58;30.60;;;;;;;3.81;100.00;94122.81;5070943;28;20489;-69
2022/12/28 06:22:57;;;;;;;53.00;31.58;;;;;;;3.78;100.00;94120.56;5071194;28;20044;-69
2022/12/28 06:25:25;;;;;;;50.30;32.30;;;;;;;3.83;100.00;94117.56;5071074;28;20122;-69
2022/12/28 06:27:52;;;;;;;57.92;36.30;;;;;;;3.82;100.00;94118.53;5071013;28;20048;-69
2022/12/28 06:30:19;;;;;;;50.95;32.95;;;;;;;3.70;100.00;94111.13;5070972;28;21400;-69
2022/12/28 06:32:45;;;;;;;54.70;35.20;;;;;;;3.78;100.00;94127.38;5071155;28;20048;-69
2022/12/28 06:35:12;;;;;;;54.15;35.13;;;;;;;3.80;100.00;94122.97;5071162;28;20052;-69
2022/12/28 06:37:39;;;;;;;45.55;30.65;;;;;;;3.82;100.00;94124.41;5071071;28;20048;-69
2022/12/28 06:40:06;;;;;;;45.47;31.15;;;;;;;3.84;100.00;94130.16;5069405;28;20037;-69
2022/12/28 06:42:34;;;;;;;46.47;29.80;;;;;;;3.84;100.00;94131.91;5086312;28;20036;-69
2022/12/28 06:45:01;;;;;;;51.13;29.90;;;;;;;3.80;100.00;94131.38;5091097;28;20048;-69
2022/12/28 06:47:28;;;;;;;48.38;29.35;;;;;;;3.86;100.00;94142.72;5091141;28;20078;-69
2022/12/28 06:49:54;;;;;;;50.53;33.00;;;;;;;3.89;100.00;94139.88;5091690;28;20442;-69
2022/12/28 06:52:21;;;;;;;42.80;29.95;;;;;;;3.96;100.00;94132.47;5091206;28;20048;-69
2022/12/28 06:54:48;;;;;;;64.20;35.15;;;;;;;3.98;100.00;94135.69;5091174;28;20104;-70
2022/12/28 06:57:15;;;;;;;55.42;36.35;;;;;;;4.03;100.00;94132.69;5091248;28;20113;-70
2022/12/28 06:59:43;;;;;;;53.00;35.10;;;;;;;4.07;100.00;94137.31;5091564;28;20052;-70
2022/12/28 07:02:09;;;;;;;51.53;35.30;;;;;;;4.09;100.00;94134.66;5090903;28;20093;-70
2022/12/28 07:04:36;;;;;;;51.40;32.92;;;;;;;4.14;100.00;94138.38;5091322;28;20100;-70
2022/12/28 07:07:03;;;;;;;48.92;30.65;;;;;;;4.24;100.00;94135.72;5090628;28;20048;-70
2022/12/28 07:09:29;;;;;;;43.22;29.85;;;;;;;4.26;100.00;94128.75;5090792;28;20504;-70
2022/12/28 07:11:56;;;;;;;42.38;29.98;;;;;;;4.33;100.00;94130.69;5091145;28;20116;-70
2022/12/28 07:14:23;;;;;;;39.80;27.85;;;;;;;4.41;100.00;94130.75;5091139;28;20093;-69
2022/12/28 07:16:51;;;;;;;43.42;28.77;;;;;;;4.46;100.00;94128.56;5077574;28;20036;-70
2022/12/28 07:19:18;;;;;;;50.33;32.00;;;;;;;4.47;100.00;94131.91;5090966;28;20044;-70
2022/12/28 07:21:45;;;;;;;122.18;74.57;;;;;;;4.50;100.00;94126.53;5090834;28;20040;-70
2022/12/28 07:24:11;;;;;;;88.38;56.33;;;;;;;4.56;100.00;94125.94;5090778;28;20439;-70
2022/12/28 07:26:38;;;;;;;96.45;61.88;;;;;;;4.60;100.00;94137.41;5090844;28;20047;-70
2022/12/28 07:29:07;;;;;;;87.28;57.22;;;;;;;4.65;100.00;94139.50;5090723;28;20058;-70
2022/12/28 07:31:35;;;;;;;102.43;67.28;;;;;;;4.64;100.00;94148.09;5090628;28;20458;-69
2022/12/28 07:34:03;;;;;;;113.65;71.53;;;;;;;4.68;100.00;94154.47;5090391;28;20129;-69
2022/12/28 07:36:31;;;;;;;129.23;79.90;;;;;;;4.74;100.00;94148.78;5090623;28;20097;-69
2022/12/28 07:38:59;;;;;;;100.60;62.80;;;;;;;4.59;100.00;94129.91;5090308;28;20097;-69
2022/12/28 07:41:28;;;;;;;62.25;39.60;;;;;;;4.49;100.00;94146.06;5090442;28;20044;-70
2022/12/28 07:43:55;;;;;;;57.33;37.33;;;;;;;4.44;100.00;94145.72;5090183;28;20081;-70
2022/12/28 07:46:24;;;;;;;31.83;22.13;;;;;;;4.42;100.00;94152.72;5090272;28;20051;-70
2022/12/28 07:48:51;;;;;;;28.98;19.63;;;;;;;4.24;100.00;94145.09;5090267;28;20093;-69
2022/12/28 07:51:22;;;;;;;21.02;14.93;;;;;;;4.30;100.00;94164.84;5089936;28;20044;-70
2022/12/28 07:53:51;;;;;;;21.50;14.65;;;;;;;4.30;100.00;94166.59;5086240;28;20048;-70
2022/12/28 07:56:19;;;;;;;18.83;13.45;;;;;;;4.40;100.00;94169.88;5077701;28;20386;-70
2022/12/28 07:58:49;;;;;;;21.13;13.80;;;;;;;4.45;100.00;94172.78;5089145;28;20044;-70
2022/12/28 08:01:17;;;;;;;20.65;14.93;;;;;;;4.55;100.00;94167.59;5090234;28;20423;-70
2022/12/28 08:03:44;;;;;;;18.25;12.43;;;;;;;4.62;100.00;94171.13;5090004;28;20040;-70
2022/12/28 08:06:14;;;;;;;23.08;12.65;;;;;;;4.73;100.00;94177.75;5090039;28;20048;-70
2022/12/28 08:08:43;;;;;;;18.02;12.73;;;;;;;4.77;100.00;94179.00;5089795;28;20048;-70
2022/12/28 08:11:13;;;;;;;18.35;12.13;;;;;;;4.81;100.00;94182.88;5090023;28;20093;-70
2022/12/28 08:13:42;;;;;;;17.73;13.43;;;;;;;4.93;100.00;94183.44;5089822;28;20389;-69
2022/12/28 08:16:11;;;;;;;24.42;15.25;;;;;;;4.85;100.00;94185.91;5089454;28;20098;-70
2022/12/28 08:18:38;;;;;;;22.08;14.77;;;;;;;5.01;100.00;94184.41;5089042;28;20093;-70
2022/12/28 08:21:07;;;;;;;17.02;11.32;;;;;;;4.98;100.00;94185.50;5090160;28;20055;-70
2022/12/28 08:23:34;;;;;;;16.42;11.10;;;;;;;5.13;100.00;94192.59;5076423;28;20047;-70
2022/12/28 08:26:07;;;;;;;18.75;11.60;;;;;;;5.23;100.00;94190.72;5089467;28;20093;-70
2022/12/28 08:28:34;;;;;;;33.15;16.48;;;;;;;5.27;100.00;94193.78;5089647;28;20052;-70
2022/12/28 08:31:06;;;;;;;18.60;11.57;;;;;;;5.16;100.00;94194.84;5082050;28;20041;-70
2022/12/28 08:33:32;;;;;;;16.70;9.90;;;;;;;4.91;100.00;94175.13;5084580;28;20043;-70
2022/12/28 08:35:59;;;;;;;17.25;11.73;;;;;;;5.17;100.00;94188.78;5081737;28;20044;-70
2022/12/28 08:38:26;;;;;;;25.00;14.50;;;;;;;5.33;100.00;94180.44;5083497;28;20044;-70
2022/12/28 08:40:55;;;;;;;26.17;15.10;;;;;;;5.41;100.00;94177.13;5082659;28;20044;-70
2022/12/28 08:43:24;;;;;;;19.02;12.40;;;;;;;5.48;100.00;94183.97;5082480;28;20051;-70
2022/12/28 08:45:57;;;;;;;13.80;8.10;;;;;;;5.41;100.00;94180.47;5076589;28;20091;-70
2022/12/28 08:48:24;;;;;;;16.08;10.45;;;;;;;5.37;100.00;94179.16;5068671;28;20424;-70
2022/12/28 08:50:51;;;;;;;16.50;9.93;;;;;;;5.40;100.00;94176.31;5070807;28;20105;-69
2022/12/28 08:53:17;;;;;;;19.63;11.80;;;;;;;5.59;100.00;94172.72;5073754;28;20040;-70
2022/12/28 08:55:44;;;;;;;18.52;11.50;;;;;;;5.72;100.00;94171.47;5072467;28;20049;-70
2022/12/28 08:58:11;;;;;;;19.02;11.93;;;;;;;5.84;100.00;94167.66;5068371;28;20049;-70
2022/12/28 09:00:39;;;;;;;13.32;9.40;;;;;;;5.82;100.00;94169.59;5068646;28;20048;-70
2022/12/28 09:03:05;;;;;;;21.20;10.98;;;;;;;6.00;100.00;94161.00;5068067;28;20041;-70
2022/12/28 09:05:32;;;;;;;11.90;7.53;;;;;;;5.93;100.00;94170.25;5069368;28;20044;-70
2022/12/28 09:07:59;;;;;;;15.80;9.00;;;;;;;5.92;100.00;94150.81;5068019;28;20056;-69
2022/12/28 09:10:26;;;;;;;16.33;8.93;;;;;;;6.00;100.00;94184.78;5068311;28;20045;-69
2022/12/28 09:12:52;;;;;;;13.45;8.80;;;;;;;6.20;100.00;94176.84;5070080;28;20041;-69
2022/12/28 09:15:19;;;;;;;11.73;7.68;;;;;;;6.08;100.00;94180.66;5069604;28;20106;-69
2022/12/28 09:17:47;;;;;;;12.35;7.35;;;;;;;6.18;100.00;94166.00;5067971;28;20044;-69
2022/12/28 09:20:14;;;;;;;17.13;8.77;;;;;;;6.33;100.00;94161.06;5068036;28;20045;-70
2022/12/28 09:22:43;;;;;;;12.98;7.65;;;;;;;6.47;100.00;94154.53;5080413;28;20093;-70
2022/12/28 09:25:09;;;;;;;13.07;7.03;;;;;;;6.56;100.00;94152.75;5088701;28;20052;-70
2022/12/28 09:27:36;;;;;;;11.85;5.97;;;;;;;6.67;100.00;94154.19;5086719;28;20117;-69
2022/12/28 09:30:03;;;;;;;12.82;7.90;;;;;;;6.75;100.00;94150.84;5092967;28;20044;-69
2022/12/28 09:32:30;;;;;;;13.45;8.00;;;;;;;6.82;100.00;94159.44;5092232;28;20052;-69
2022/12/28 09:34:58;;;;;;;15.88;9.13;;;;;;;6.91;100.00;94150.78;5093107;28;20474;-69
2022/12/28 09:37:25;;;;;;;13.80;9.15;;;;;;;7.02;100.00;94144.53;5092875;28;20047;-69
2022/12/28 09:39:52;;;;;;;10.02;6.10;;;;;;;7.05;100.00;94139.09;5092278;28;20158;-70
2022/12/28 09:42:22;;;;;;;13.52;6.50;;;;;;;7.00;100.00;94141.38;5092497;28;20040;-69
2022/12/28 09:44:59;;;;;;;12.73;7.18;;;;;;;7.13;100.00;94133.16;5092468;28;20044;-69
2022/12/28 09:47:33;;;;;;;10.90;7.18;;;;;;;7.06;100.00;94119.47;5092333;28;20055;-69
2022/12/28 09:50:23;;;;;;;13.90;8.80;;;;;;;7.16;100.00;94126.94;5093204;28;20056;-69
2022/12/28 09:52:59;;;;;;;10.95;6.38;;;;;;;7.16;99.70;94127.72;5092321;28;20059;-69
2022/12/28 09:55:27;;;;;;;10.38;6.78;;;;;;;7.19;100.00;94106.16;5092415;28;20106;-69
2022/12/28 09:57:57;;;;;;;12.70;7.80;;;;;;;7.20;100.00;94123.91;5092786;28;20105;-69
2022/12/28 10:00:27;;;;;;;15.13;9.10;;;;;;;7.13;100.00;94117.06;5092061;28;20454;-69
2022/12/28 10:02:59;;;;;;;14.13;8.55;;;;;;;7.32;100.00;94108.19;5092266;28;20063;-70
2022/12/28 10:05:27;;;;;;;13.23;8.20;;;;;;;7.44;100.00;94106.84;5092329;28;20048;-69
2022/12/28 10:07:57;;;;;;;12.73;6.50;;;;;;;7.20;94.66;94089.88;5092159;28;20055;-69
2022/12/28 10:10:25;;;;;;;12.32;6.68;;;;;;;7.28;94.90;94099.25;5092141;28;20044;-70
2022/12/28 10:12:52;;;;;;;13.80;7.50;;;;;;;7.37;100.00;94089.78;5092141;28;20051;-69
2022/12/28 10:15:19;;;;;;;10.57;6.95;;;;;;;7.48;100.00;94081.75;5092547;28;21447;-70
2022/12/28 10:17:46;;;;;;;16.40;8.80;;;;;;;7.54;100.00;94078.50;5092232;28;20048;-70
2022/12/28 10:20:18;;;;;;;14.25;8.55;;;;;;;7.70;100.00;94075.06;5092185;28;20048;-70
2022/12/28 10:22:50;;;;;;;16.33;10.02;;;;;;;7.77;99.43;94079.50;5091815;28;20592;-70
2022/12/28 10:25:19;;;;;;;16.90;9.98;;;;;;;7.80;95.99;94074.84;5091893;28;20101;-70
2022/12/28 10:27:46;;;;;;;13.82;6.70;;;;;;;7.72;92.42;94077.44;5091714;28;20060;-70
2022/12/28 10:30:18;;;;;;;13.63;6.75;;;;;;;7.62;93.86;94077.66;5091912;28;20048;-70
2022/12/28 10:32:51;;;;;;;10.25;6.50;;;;;;;7.69;92.29;94080.34;5091914;28;20040;-70
2022/12/28 10:35:26;;;;;;;12.57;6.88;;;;;;;7.73;96.32;94074.72;5091845;28;20487;-70
2022/12/28 10:38:00;;;;;;;13.77;7.40;;;;;;;7.82;99.64;94070.34;5091159;28;20470;-69
2022/12/28 10:40:30;;;;;;;13.07;7.63;;;;;;;7.86;97.67;94073.34;5089305;28;20101;-70
2022/12/28 10:42:59;;;;;;;12.90;7.85;;;;;;;7.94;98.48;94072.50;5091033;28;20048;-70
2022/12/28 10:45:34;;;;;;;16.77;8.82;;;;;;;8.01;100.00;94075.97;5085926;28;20048;-70
2022/12/28 10:48:23;;;;;;;13.93;8.48;;;;;;;7.82;100.00;94037.09;5070982;28;20052;-70
2022/12/28 10:51:03;;;;;;;25.15;12.75;;;;;;;8.05;100.00;94066.97;5074288;28;20097;-70
2022/12/28 10:53:41;;;;;;;21.83;10.40;;;;;;;8.10;100.00;94067.25;5069611;28;20071;-70
2022/12/28 10:56:25;;;;;;;11.82;6.90;;;;;;;7.85;96.64;94062.34;5070621;28;20067;-70
2022/12/28 10:58:53;;;;;;;11.68;6.53;;;;;;;7.77;96.04;94069.28;5088472;28;20085;-70
2022/12/28 11:01:25;;;;;;;17.02;7.53;;;;;;;7.46;95.27;94076.00;5091300;28;20048;-70
2022/12/28 11:04:01;;;;;;;12.75;6.97;;;;;;;7.48;96.42;94071.50;5091321;28;20044;-70
2022/12/28 11:06:29;;;;;;;13.38;6.35;;;;;;;7.08;97.48;94043.44;5091195;28;20097;-70
2022/12/28 11:09:13;;;;;;;13.40;7.57;;;;;;;7.24;97.26;94075.81;5091150;28;20048;-69
2022/12/28 11:11:41;;;;;;;16.35;8.65;;;;;;;6.99;100.00;94070.00;5090421;28;20093;-70
2022/12/28 11:14:15;;;;;;;19.35;10.00;;;;;;;6.74;99.93;94072.63;5075751;28;20048;-70
2022/12/28 11:16:43;;;;;;;15.98;9.13;;;;;;;6.57;100.00;94075.22;5082336;28;20451;-70
2022/12/28 11:19:11;;;;;;;16.27;9.52;;;;;;;6.47;100.00;94069.53;5090184;28;20056;-70
2022/12/28 11:21:39;;;;;;;18.92;9.55;;;;;;;6.43;100.00;94068.25;5090161;28;20052;-70
2022/12/28 11:24:11;;;;;;;13.93;9.57;;;;;;;6.48;100.00;94066.78;5089627;28;20454;-70
2022/12/28 11:26:42;;;;;;;14.38;8.45;;;;;;;6.40;100.00;94066.81;5090507;28;20442;-70
2022/12/28 11:29:12;;;;;;;17.73;10.35;;;;;;;6.33;100.00;94066.66;5089649;28;20069;-69
2022/12/28 11:31:44;;;;;;;22.80;13.45;;;;;;;6.30;100.00;94071.28;5090081;28;20052;-70
2022/12/28 11:34:17;;;;;;;18.40;11.40;;;;;;;6.21;100.00;94067.94;5089745;28;20048;-70
2022/12/28 11:36:44;;;;;;;32.13;13.27;;;;;;;6.05;100.00;94064.44;5089209;28;20492;-69
2022/12/28 11:39:41;;;;;;;39.50;17.77;;;;;;;6.05;100.00;94061.09;5089595;28;20390;-70
2022/12/28 11:42:08;;;;;;;24.02;13.95;;;;;;;6.11;100.00;94060.47;5089580;28;20519;-70
2022/12/28 11:44:52;;;;;;;19.80;12.35;;;;;;;6.22;100.00;94062.69;5089537;28;20040;-70
2022/12/28 11:47:24;;;;;;;21.52;13.57;;;;;;;6.23;100.00;94055.81;5089773;28;20044;-70
2022/12/28 11:49:52;;;;;;;29.85;15.63;;;;;;;6.37;100.00;94055.16;5086756;28;20095;-71
2022/12/28 11:52:46;;;;;;;34.55;17.27;;;;;;;6.42;100.00;94054.66;5087571;28;20052;-70
2022/12/28 11:55:52;;;;;;;52.05;25.45;;;;;;;6.46;100.00;94050.84;5088743;28;20059;-70
2022/12/28 11:59:07;;;;;;;53.83;25.25;;;;;;;6.54;100.00;94043.16;5084605;28;20405;-70